createdAt,value
2023-05-25T00:04:48.656Z,100.00
2023-05-25T00:09:51.928Z,100.00
2023-05-25T00:14:55.229Z,100.00
2023-05-25T00:20:09.552Z,100.00
2023-05-25T00:25:12.823Z,100.00
2023-05-25T00:30:16.425Z,100.00
2023-05-25T00:35:21.232Z,100.00
2023-05-25T00:40:24.666Z,100.00
2023-05-25T00:45:27.941Z,100.00
2023-05-25T00:50:39.059Z,100.00
2023-05-25T00:55:46.462Z,100.00
2023-05-25T01:00:50.730Z,100.00
2023-05-25T01:05:56.209Z,100.00
2023-05-25T01:11:00.162Z,100.00
2023-05-25T01:16:03.676Z,100.00
2023-05-25T01:21:14.233Z,100.00
2023-05-25T01:26:18.581Z,100.00
2023-05-25T01:31:23.258Z,100.00
2023-05-25T01:36:27.985Z,100.00
2023-05-25T01:41:32.064Z,100.00
2023-05-25T01:46:38.883Z,100.00
2023-05-25T01:51:49.298Z,100.00
2023-05-25T01:56:53.875Z,100.00
2023-05-25T02:01:57.663Z,100.00
2023-05-25T02:07:02.356Z,100.00
2023-05-25T02:12:06.444Z,100.00
2023-05-25T02:17:09.753Z,100.00
2023-05-25T02:22:14.574Z,100.00
2023-05-25T02:27:18.108Z,100.00
2023-05-25T02:32:21.642Z,100.00
2023-05-25T02:37:26.641Z,100.00
2023-05-25T02:42:30.025Z,100.00
2023-05-25T02:47:34.758Z,100.00
2023-05-25T02:52:40.037Z,100.00
2023-05-25T02:57:43.352Z,100.00
2023-05-25T03:02:50.073Z,100.00
2023-05-25T03:07:56.992Z,100.00
2023-05-25T03:13:00.616Z,100.00
2023-05-25T03:18:04.017Z,100.00
2023-05-25T03:23:12.674Z,100.00
2023-05-25T03:28:16.300Z,100.00
2023-05-25T03:33:20.236Z,100.00
2023-05-25T03:38:26.953Z,100.00
2023-05-25T03:43:30.562Z,100.00
2023-05-25T03:48:33.976Z,100.00
2023-05-25T03:53:39.530Z,100.00
2023-05-25T03:58:44.624Z,100.00
2023-05-25T04:03:48.607Z,100.00
2023-05-25T04:08:53.830Z,100.00
2023-05-25T04:13:57.758Z,100.00
2023-05-25T04:19:03.936Z,100.00
2023-05-25T04:24:09.754Z,100.00
2023-05-25T04:29:13.704Z,100.00
2023-05-25T04:34:26.816Z,100.00
2023-05-25T04:39:40.123Z,100.00
2023-05-25T04:44:43.540Z,100.00
2023-05-25T04:49:46.957Z,100.00
2023-05-25T04:54:51.786Z,100.00
2023-05-25T04:59:55.343Z,100.00
2023-05-25T05:04:59.153Z,100.00
2023-05-25T05:10:04.571Z,100.00
2023-05-25T05:15:09.786Z,100.00
2023-05-25T05:20:14.982Z,100.00
2023-05-25T05:25:20.365Z,100.00
2023-05-25T05:30:24.412Z,100.00
2023-05-25T05:35:27.705Z,100.00
2023-05-25T05:40:42.879Z,100.00
2023-05-25T05:45:46.551Z,100.00
2023-05-25T05:50:50.262Z,100.00
2023-05-25T05:55:59.193Z,100.00
2023-05-25T06:01:03.532Z,100.00
2023-05-25T06:06:07.903Z,100.00
2023-05-25T06:11:13.181Z,100.00
2023-05-25T06:16:16.775Z,100.00
2023-05-25T06:21:20.289Z,100.00
2023-05-25T06:26:26.034Z,100.00
2023-05-25T06:31:29.638Z,100.00
2023-05-25T06:36:33.029Z,100.00
2023-05-25T06:41:40.659Z,100.00
2023-05-25T06:46:44.314Z,100.00
2023-05-25T06:51:49.113Z,100.00
2023-05-25T06:56:53.733Z,100.00
2023-05-25T07:01:59.090Z,100.00
2023-05-25T07:07:02.509Z,100.00
2023-05-25T07:12:08.951Z,100.00
2023-05-25T07:17:12.624Z,100.00
2023-05-25T07:22:17.054Z,100.00
2023-05-25T07:27:21.887Z,100.00
2023-05-25T07:32:25.222Z,100.00
2023-05-25T07:37:28.495Z,100.00
2023-05-25T07:42:34.461Z,100.00
2023-05-25T07:47:37.842Z,96.28
2023-05-25T07:52:41.199Z,83.75
2023-05-25T07:57:45.800Z,82.18
2023-05-25T08:02:49.194Z,83.20
2023-05-25T08:07:52.472Z,87.87
2023-05-25T08:12:58.848Z,87.96
2023-05-25T08:18:04.541Z,87.48
2023-05-25T08:23:08.383Z,85.72
2023-05-25T08:28:13.035Z,82.20
2023-05-25T08:33:16.242Z,79.44
2023-05-25T08:38:19.511Z,73.54
2023-05-25T08:43:24.204Z,68.95
2023-05-25T08:48:39.905Z,72.27
2023-05-25T08:53:44.970Z,77.07
2023-05-25T08:58:53.892Z,72.45
2023-05-25T09:03:58.251Z,71.28
2023-05-25T09:09:01.503Z,69.87
2023-05-25T09:14:06.290Z,71.50
2023-05-25T09:19:09.827Z,68.52
2023-05-25T09:24:13.157Z,74.85
2023-05-25T09:29:18.008Z,71.17
2023-05-25T09:34:21.380Z,72.00
2023-05-25T09:39:24.826Z,77.06
2023-05-25T09:44:30.196Z,71.07
2023-05-25T09:49:33.816Z,68.33
2023-05-25T09:54:38.280Z,65.00
2023-05-25T09:59:43.174Z,64.67
2023-05-25T10:04:46.609Z,60.63
2023-05-25T10:09:53.530Z,60.47
2023-05-25T10:14:59.592Z,61.90
2023-05-25T10:20:05.544Z,60.81
2023-05-25T10:25:11.744Z,61.48
2023-05-25T10:30:16.814Z,57.10
2023-05-25T10:35:21.100Z,56.49
2023-05-25T10:40:25.252Z,54.98
2023-05-25T10:45:29.959Z,61.21
2023-05-25T10:50:36.778Z,62.57
2023-05-25T10:55:44.457Z,57.70
2023-05-25T11:01:00.843Z,56.41
2023-05-25T11:06:04.306Z,55.59
2023-05-25T11:11:07.845Z,56.99
2023-05-25T11:16:20.132Z,54.69
2023-05-25T11:21:40.719Z,52.86
2023-05-25T11:26:58.534Z,52.85
2023-05-25T11:32:03.618Z,52.82
2023-05-25T11:37:06.929Z,54.10
2023-05-25T11:42:11.478Z,55.38
2023-05-25T11:47:18.954Z,57.86
2023-05-25T11:52:23.232Z,54.90
2023-05-25T11:57:26.720Z,54.28
2023-05-25T12:02:38.949Z,54.05
2023-05-25T12:07:44.848Z,54.74
2023-05-25T12:12:51.219Z,53.30
2023-05-25T12:17:56.191Z,53.74
2023-05-25T12:22:59.688Z,52.77
2023-05-25T12:28:12.703Z,51.15
2023-05-25T12:33:17.417Z,49.42
2023-05-25T12:38:21.852Z,49.25
2023-05-25T12:43:25.348Z,50.05
2023-05-25T12:48:30.110Z,50.14
2023-05-25T12:58:37.127Z,50.59
2023-05-25T13:03:41.877Z,49.15
2023-05-25T13:08:46.860Z,51.43
2023-05-25T13:13:53.412Z,50.81
2023-05-25T13:18:58.300Z,50.65
2023-05-25T13:24:01.842Z,51.93
2023-05-25T13:29:05.185Z,49.53
2023-05-25T13:34:10.038Z,50.48
2023-05-25T13:39:14.707Z,49.72
2023-05-25T13:44:18.003Z,49.48
2023-05-25T13:49:23.669Z,51.06
2023-05-25T13:54:28.021Z,49.77
2023-05-25T13:59:31.491Z,50.13
2023-05-25T14:04:36.876Z,49.81
2023-05-25T14:09:40.187Z,49.90
2023-05-25T14:14:43.588Z,49.66
2023-05-25T14:19:48.205Z,48.63
2023-05-25T14:24:52.577Z,49.50
2023-05-25T14:29:55.727Z,50.46
2023-05-25T14:35:00.490Z,50.95
2023-05-25T14:40:04.582Z,52.32
2023-05-25T14:45:11.095Z,51.05
2023-05-25T14:50:16.822Z,50.68
2023-05-25T14:55:20.111Z,50.87
2023-05-25T15:00:23.515Z,53.11
2023-05-25T15:05:28.287Z,53.12
2023-05-25T15:10:31.745Z,53.41
2023-05-25T15:15:35.055Z,52.15
2023-05-25T15:20:39.837Z,52.69
2023-05-25T15:25:43.474Z,54.18
2023-05-25T15:30:46.880Z,53.47
2023-05-25T15:35:51.509Z,53.18
2023-05-25T15:40:54.772Z,53.26
2023-05-25T15:45:58.010Z,51.96
2023-05-25T15:51:02.790Z,50.99
2023-05-25T15:56:06.359Z,52.40
2023-05-25T16:01:11.820Z,51.68
2023-05-25T16:06:17.920Z,52.71
2023-05-25T16:11:21.257Z,53.41
2023-05-25T16:16:25.305Z,53.69
2023-05-25T16:21:30.554Z,54.79
2023-05-25T16:26:34.500Z,55.14
2023-05-25T16:31:38.105Z,55.92
2023-05-25T16:36:42.947Z,56.77
2023-05-25T16:41:46.398Z,56.48
2023-05-25T16:46:50.351Z,56.76
2023-05-25T16:51:55.097Z,57.63
2023-05-25T16:56:58.421Z,56.75
2023-05-25T17:02:02.089Z,57.02
2023-05-25T17:07:07.618Z,57.60
2023-05-25T17:12:11.159Z,59.09
2023-05-25T17:17:15.136Z,58.53
2023-05-25T17:22:20.017Z,59.22
2023-05-25T17:27:23.446Z,60.56
2023-05-25T17:32:27.338Z,61.78
2023-05-25T17:37:32.316Z,64.26
2023-05-25T17:42:35.612Z,66.66
2023-05-25T17:47:38.869Z,68.27
2023-05-25T17:52:43.736Z,72.82
2023-05-25T17:57:47.164Z,77.32
2023-05-25T18:02:51.964Z,81.33
2023-05-25T18:07:56.764Z,81.76
2023-05-25T18:12:59.997Z,86.08
2023-05-25T18:18:03.887Z,83.98
2023-05-25T18:23:09.311Z,84.63
2023-05-25T18:28:14.864Z,85.31
2023-05-25T18:33:18.321Z,87.25
2023-05-25T18:38:23.000Z,88.97
2023-05-25T18:43:26.990Z,97.61
2023-05-25T18:48:30.739Z,100.00
2023-05-25T18:53:35.479Z,100.00
2023-05-25T18:58:38.781Z,100.00
2023-05-25T19:03:42.271Z,100.00
2023-05-25T19:08:47.035Z,100.00
2023-05-25T19:13:50.313Z,100.00
2023-05-25T19:18:53.640Z,100.00
2023-05-25T19:23:58.978Z,100.00
2023-05-25T19:29:02.407Z,100.00
2023-05-25T19:34:06.278Z,100.00
2023-05-25T19:39:10.954Z,100.00
2023-05-25T19:44:15.492Z,100.00
2023-05-25T19:49:19.106Z,100.00
2023-05-25T19:54:23.928Z,100.00
2023-05-25T19:59:30.273Z,100.00
2023-05-25T20:04:34.192Z,100.00
2023-05-25T20:09:39.260Z,100.00
2023-05-25T20:14:43.737Z,100.00
2023-05-25T20:19:47.878Z,100.00
2023-05-25T20:24:54.972Z,100.00
2023-05-25T20:29:58.973Z,100.00
2023-05-25T20:35:03.140Z,100.00
2023-05-25T20:40:09.733Z,100.00
2023-05-25T20:45:13.606Z,100.00
2023-05-25T20:50:17.301Z,100.00
2023-05-25T20:55:22.115Z,100.00
2023-05-25T21:00:25.436Z,100.00
2023-05-25T21:05:29.174Z,100.00
2023-05-25T21:10:34.733Z,100.00
2023-05-25T21:15:38.100Z,100.00
2023-05-25T21:20:41.942Z,100.00
2023-05-25T21:25:47.315Z,100.00
2023-05-25T21:30:51.088Z,100.00
2023-05-25T21:35:54.477Z,100.00
2023-05-25T21:40:59.578Z,100.00
2023-05-25T21:46:02.715Z,100.00
2023-05-25T21:51:05.980Z,100.00
2023-05-25T21:56:10.693Z,100.00
2023-05-25T22:01:14.055Z,100.00
2023-05-25T22:06:17.492Z,100.00
2023-05-25T22:11:22.261Z,100.00
2023-05-25T22:16:25.674Z,100.00
2023-05-25T22:21:29.009Z,100.00
2023-05-25T22:26:33.680Z,100.00
2023-05-25T22:31:37.242Z,100.00
2023-05-25T22:36:40.557Z,100.00
2023-05-25T22:41:45.320Z,100.00
2023-05-25T22:46:48.743Z,100.00
2023-05-25T22:51:52.189Z,100.00
2023-05-25T22:56:56.787Z,100.00
2023-05-25T23:02:00.167Z,100.00
2023-05-25T23:07:03.564Z,100.00
2023-05-25T23:12:08.590Z,100.00
2023-05-25T23:17:12.016Z,100.00
2023-05-25T23:22:15.223Z,100.00
2023-05-25T23:27:20.007Z,100.00
2023-05-25T23:32:23.259Z,100.00
2023-05-25T23:37:26.909Z,100.00
2023-05-25T23:42:38.989Z,100.00
2023-05-25T23:47:42.223Z,100.00
2023-05-25T23:52:45.850Z,100.00
2023-05-25T23:57:50.572Z,100.00
